createdAt,value
2019-05-11T00:01:14.770Z,14.83
2019-05-11T00:03:43.665Z,14.83
2019-05-11T00:06:12.658Z,13.93
2019-05-11T00:08:41.514Z,14.88
2019-05-11T00:11:10.537Z,14.90
2019-05-11T00:13:39.495Z,14.91
2019-05-11T00:16:08.729Z,14.92
2019-05-11T00:18:37.837Z,14.91
2019-05-11T00:21:06.877Z,14.93
2019-05-11T00:23:36.006Z,14.93
2019-05-11T00:26:05.077Z,14.93
2019-05-11T00:28:34.151Z,14.94
2019-05-11T00:31:03.267Z,14.93
2019-05-11T00:33:32.346Z,14.91
2019-05-11T00:36:01.427Z,14.88
2019-05-11T00:38:30.532Z,14.85
2019-05-11T00:40:59.604Z,14.84
2019-05-11T00:43:28.672Z,14.84
2019-05-11T00:45:57.737Z,14.83
2019-05-11T00:48:26.854Z,14.84
2019-05-11T00:50:56.015Z,14.84
2019-05-11T00:53:25.091Z,14.84
2019-05-11T00:55:54.163Z,14.84
2019-05-11T00:58:23.265Z,14.82
2019-05-11T01:00:52.314Z,14.82
2019-05-11T01:03:21.387Z,14.84
2019-05-11T01:05:50.442Z,14.86
2019-05-11T01:08:19.535Z,14.88
2019-05-11T01:10:48.561Z,14.90
2019-05-11T01:13:17.653Z,14.91
2019-05-11T01:15:46.756Z,14.94
2019-05-11T01:18:15.797Z,14.96
2019-05-11T01:20:45.124Z,14.97
2019-05-11T01:23:14.193Z,14.99
2019-05-11T01:25:43.282Z,14.99
2019-05-11T01:28:12.393Z,14.99
2019-05-11T01:30:41.481Z,14.99
2019-05-11T01:33:10.568Z,14.99
2019-05-11T01:35:39.672Z,15.00
2019-05-11T01:38:08.734Z,15.01
2019-05-11T01:40:37.853Z,15.01
2019-05-11T01:43:06.936Z,15.00
2019-05-11T01:45:36.306Z,15.01
2019-05-11T01:48:05.406Z,15.01
2019-05-11T01:50:34.480Z,15.00
2019-05-11T01:53:03.529Z,14.93
2019-05-11T01:55:32.608Z,14.90
2019-05-11T01:58:01.621Z,14.90
2019-05-11T02:00:30.682Z,14.90
2019-05-11T02:02:59.765Z,14.88
2019-05-11T02:05:32.024Z,14.84
2019-05-11T02:08:01.915Z,14.82
2019-05-11T02:10:31.279Z,14.75
2019-05-11T02:13:00.357Z,14.71
2019-05-11T02:15:29.472Z,14.65
2019-05-11T02:17:58.514Z,14.63
2019-05-11T02:20:27.567Z,14.63
2019-05-11T02:22:56.566Z,14.64
2019-05-11T02:25:25.628Z,14.65
2019-05-11T02:27:54.647Z,14.63
2019-05-11T02:30:23.718Z,14.60
2019-05-11T02:32:52.777Z,14.59
2019-05-11T02:35:21.831Z,14.61
2019-05-11T02:37:50.875Z,14.65
2019-05-11T02:40:21.210Z,14.67
2019-05-11T02:42:50.270Z,14.69
2019-05-11T02:45:30.924Z,14.69
2019-05-11T02:47:59.956Z,14.70
2019-05-11T02:50:29.061Z,14.69
2019-05-11T02:52:58.073Z,14.70
2019-05-11T02:55:27.126Z,14.72
2019-05-11T02:57:56.199Z,14.74
2019-05-11T03:00:39.270Z,14.76
2019-05-11T03:03:08.291Z,14.76
2019-05-11T03:05:37.314Z,14.75
2019-05-11T03:08:06.411Z,14.75
2019-05-11T03:10:35.512Z,14.76
2019-05-11T03:13:04.561Z,14.77
2019-05-11T03:15:33.582Z,14.76
2019-05-11T03:18:02.753Z,14.76
2019-05-11T03:20:31.818Z,14.76
2019-05-11T03:23:00.894Z,14.75
2019-05-11T03:25:29.904Z,14.75
2019-05-11T03:27:58.980Z,14.73
2019-05-11T03:30:28.056Z,14.72
2019-05-11T03:32:57.141Z,14.72
2019-05-11T03:35:26.200Z,14.74
2019-05-11T03:37:55.193Z,14.74
2019-05-11T03:40:24.244Z,14.72
2019-05-11T03:42:53.298Z,14.72
2019-05-11T03:45:22.312Z,14.72
2019-05-11T03:47:51.415Z,14.71
2019-05-11T03:50:20.449Z,14.71
2019-05-11T03:52:49.525Z,14.72
2019-05-11T03:55:18.556Z,14.72
2019-05-11T03:57:47.657Z,14.73
2019-05-11T04:00:16.698Z,14.75
2019-05-11T04:02:45.721Z,14.77
2019-05-11T04:05:14.751Z,14.76
2019-05-11T04:07:43.819Z,14.72
2019-05-11T04:10:12.890Z,14.67
2019-05-11T04:12:41.950Z,14.65
2019-05-11T04:15:11.187Z,14.64
2019-05-11T04:17:40.280Z,14.64
2019-05-11T04:20:09.306Z,14.66
2019-05-11T04:22:38.372Z,14.61
2019-05-11T04:25:07.421Z,14.57
2019-05-11T04:27:36.541Z,14.56
2019-05-11T04:30:06.225Z,14.54
2019-05-11T04:32:35.296Z,14.55
2019-05-11T04:35:04.673Z,14.57
2019-05-11T04:37:33.735Z,14.57
2019-05-11T04:40:02.806Z,14.54
2019-05-11T04:42:31.888Z,14.54
2019-05-11T04:45:00.957Z,14.54
2019-05-11T04:47:30.037Z,14.55
2019-05-11T04:49:59.125Z,14.57
2019-05-11T04:52:28.184Z,14.62
2019-05-11T04:54:57.186Z,14.65
2019-05-11T04:57:26.247Z,14.68
2019-05-11T04:59:55.354Z,14.69
2019-05-11T05:02:27.184Z,14.68
2019-05-11T05:04:55.210Z,14.68
2019-05-11T05:07:24.284Z,14.69
2019-05-11T05:09:53.386Z,14.71
2019-05-11T05:12:22.501Z,14.72
2019-05-11T05:14:51.607Z,14.74
2019-05-11T05:17:20.763Z,14.79
2019-05-11T05:19:49.808Z,14.81
2019-05-11T05:22:18.924Z,14.83
2019-05-11T05:24:48.067Z,14.80
2019-05-11T05:27:17.137Z,14.82
2019-05-11T05:29:46.184Z,14.84
2019-05-11T05:32:15.287Z,14.88
2019-05-11T05:34:44.341Z,14.90
2019-05-11T05:37:13.510Z,14.95
2019-05-11T05:39:42.578Z,14.96
2019-05-11T05:42:11.568Z,14.95
2019-05-11T05:44:40.754Z,14.98
2019-05-11T05:47:09.886Z,14.97
2019-05-11T05:49:39.056Z,14.96
2019-05-11T05:52:08.150Z,14.94
2019-05-11T05:54:37.201Z,14.92
2019-05-11T05:57:06.396Z,14.90
2019-05-11T05:59:35.538Z,14.91
2019-05-11T06:02:04.653Z,14.94
2019-05-11T06:04:36.695Z,14.98
2019-05-11T06:07:05.786Z,15.00
2019-05-11T06:09:35.123Z,14.98
2019-05-11T06:12:04.267Z,14.96
2019-05-11T06:14:33.326Z,14.95
2019-05-11T06:17:02.369Z,14.95
2019-05-11T06:19:31.446Z,15.02
2019-05-11T06:22:00.580Z,14.99
2019-05-11T06:24:29.960Z,15.04
2019-05-11T06:26:59.410Z,15.09
2019-05-11T06:29:29.085Z,15.14
2019-05-11T06:31:58.571Z,15.20
2019-05-11T06:34:27.924Z,15.26
2019-05-11T06:36:57.573Z,15.31
2019-05-11T06:39:26.700Z,15.39
2019-05-11T06:41:55.894Z,15.45
2019-05-11T06:44:25.101Z,15.47
2019-05-11T06:46:54.999Z,15.53
2019-05-11T06:49:24.767Z,15.56
2019-05-11T06:51:54.150Z,15.57
2019-05-11T06:54:23.281Z,15.65
2019-05-11T06:56:54.902Z,15.73
2019-05-11T06:59:24.461Z,15.77
2019-05-11T07:01:54.297Z,15.88
2019-05-11T07:04:23.361Z,15.98
2019-05-11T07:06:52.613Z,15.93
2019-05-11T07:09:21.662Z,15.85
2019-05-11T07:11:50.809Z,15.75
2019-05-11T07:14:21.495Z,15.74
2019-05-11T07:16:50.774Z,15.67
2019-05-11T07:19:19.899Z,15.65
2019-05-11T07:21:48.974Z,15.64
2019-05-11T07:24:18.004Z,15.62
2019-05-11T07:26:47.123Z,15.62
2019-05-11T07:29:16.133Z,15.60
2019-05-11T07:31:45.225Z,15.61
2019-05-11T07:34:14.297Z,15.70
2019-05-11T07:36:43.359Z,15.72
2019-05-11T07:39:12.426Z,15.80
2019-05-11T07:41:41.513Z,15.90
2019-05-11T07:44:10.680Z,15.93
2019-05-11T07:46:39.950Z,15.93
2019-05-11T07:49:09.077Z,15.95
2019-05-11T07:51:38.883Z,15.95
2019-05-11T07:54:08.581Z,15.99
2019-05-11T07:56:38.976Z,16.06
2019-05-11T07:59:08.432Z,16.17
2019-05-11T08:01:38.702Z,16.24
2019-05-11T08:04:08.054Z,16.33
2019-05-11T08:06:39.122Z,16.30
2019-05-11T08:09:08.646Z,16.35
2019-05-11T08:11:38.926Z,16.43
2019-05-11T08:14:08.246Z,16.51
2019-05-11T08:16:39.150Z,16.56
2019-05-11T08:19:10.749Z,16.58
2019-05-11T08:21:41.963Z,16.62
2019-05-11T08:24:11.254Z,16.69
2019-05-11T08:26:40.894Z,16.76
2019-05-11T08:29:10.073Z,16.81
2019-05-11T08:31:40.323Z,16.87
2019-05-11T08:34:09.477Z,16.99
2019-05-11T08:36:38.786Z,17.04
2019-05-11T08:39:08.409Z,17.12
2019-05-11T08:41:38.610Z,17.19
2019-05-11T08:44:08.913Z,17.26
2019-05-11T08:46:38.717Z,17.28
2019-05-11T08:49:08.778Z,17.30
2019-05-11T08:51:38.794Z,17.37
2019-05-11T08:54:09.031Z,17.37
2019-05-11T08:56:40.024Z,17.38
2019-05-11T08:59:09.122Z,17.31
2019-05-11T09:01:39.322Z,17.31
2019-05-11T09:04:09.093Z,17.30
2019-05-11T09:06:38.281Z,17.30
2019-05-11T09:09:09.018Z,17.34
2019-05-11T09:11:39.043Z,17.41
2019-05-11T09:14:08.539Z,17.48
2019-05-11T09:16:38.380Z,17.57
2019-05-11T09:19:08.833Z,17.63
2019-05-11T09:21:38.613Z,17.69
2019-05-11T09:24:08.409Z,17.72
2019-05-11T09:26:38.861Z,17.69
2019-05-11T09:29:08.850Z,17.66
2019-05-11T09:31:38.426Z,17.62
2019-05-11T09:34:09.047Z,17.59
2019-05-11T09:36:39.083Z,17.49
2019-05-11T09:39:09.094Z,17.46
2019-05-11T09:41:38.525Z,17.43
2019-05-11T09:44:09.016Z,17.42
2019-05-11T09:46:38.665Z,17.47
2019-05-11T09:49:08.175Z,17.56
2019-05-11T09:51:38.158Z,17.65
2019-05-11T09:54:08.012Z,17.69
2019-05-11T09:56:38.158Z,17.76
2019-05-11T09:59:08.770Z,17.85
2019-05-11T10:01:38.087Z,17.93
2019-05-11T10:04:08.974Z,17.95
2019-05-11T10:06:38.905Z,18.02
2019-05-11T10:09:08.449Z,18.07
2019-05-11T10:11:39.940Z,18.15
2019-05-11T10:14:08.657Z,18.33
2019-05-11T10:16:38.619Z,18.54
2019-05-11T10:19:08.593Z,18.69
2019-05-11T10:21:38.582Z,19.06
2019-05-11T10:24:08.562Z,19.71
2019-05-11T10:26:38.466Z,20.58
2019-05-11T10:29:08.070Z,20.98
2019-05-11T10:31:38.583Z,20.90
2019-05-11T10:34:08.797Z,20.71
2019-05-11T10:36:38.658Z,20.54
2019-05-11T10:39:09.300Z,20.31
2019-05-11T10:41:41.369Z,20.33
2019-05-11T10:44:10.411Z,20.37
2019-05-11T10:46:39.479Z,20.43
2019-05-11T10:49:08.570Z,20.59
2019-05-11T10:51:38.475Z,20.81
2019-05-11T10:54:08.753Z,20.72
2019-05-11T10:56:39.017Z,20.44
2019-05-11T10:59:08.201Z,20.20
2019-05-11T11:01:38.044Z,19.99
2019-05-11T11:04:08.014Z,19.95
2019-05-11T11:06:38.642Z,20.44
2019-05-11T11:09:09.144Z,20.87
2019-05-11T11:11:38.406Z,20.93
2019-05-11T11:14:08.755Z,21.21
2019-05-11T11:16:42.025Z,21.25
2019-05-11T11:19:08.891Z,21.40
2019-05-11T11:21:38.441Z,22.19
2019-05-11T11:24:07.840Z,23.42
2019-05-11T11:26:38.157Z,24.65
2019-05-11T11:29:08.540Z,25.65
2019-05-11T11:31:38.165Z,25.71
2019-05-11T11:34:08.235Z,25.26
2019-05-11T11:36:37.794Z,24.53
2019-05-11T11:39:08.538Z,23.84
2019-05-11T11:41:38.046Z,23.56
2019-05-11T11:44:07.841Z,23.52
2019-05-11T11:46:51.340Z,23.51
2019-05-11T11:49:08.512Z,23.27
2019-05-11T11:51:37.934Z,23.02
2019-05-11T11:54:08.818Z,22.74
2019-05-11T11:56:38.338Z,22.65
2019-05-11T11:59:08.578Z,22.37
2019-05-11T12:01:39.404Z,22.18
2019-05-11T12:04:08.509Z,22.06
2019-05-11T12:06:38.562Z,21.89
2019-05-11T12:09:11.429Z,21.63
2019-05-11T12:11:42.560Z,21.56
2019-05-11T12:14:11.731Z,21.40
2019-05-11T12:16:40.816Z,21.47
2019-05-11T12:19:09.973Z,21.53
2019-05-11T12:21:39.581Z,21.79
2019-05-11T12:24:08.691Z,22.08
2019-05-11T12:26:38.875Z,22.30
2019-05-11T12:29:08.823Z,22.40
2019-05-11T12:31:38.077Z,22.29
2019-05-11T12:34:08.716Z,21.96
2019-05-11T12:36:38.745Z,21.58
2019-05-11T12:39:09.193Z,21.19
2019-05-11T12:41:39.039Z,20.79
2019-05-11T12:44:08.414Z,20.41
2019-05-11T12:46:39.578Z,20.17
2019-05-11T12:49:08.537Z,19.98
2019-05-11T12:51:38.407Z,19.91
2019-05-11T12:54:08.344Z,20.02
2019-05-11T12:56:38.329Z,20.18
2019-05-11T12:59:08.338Z,20.35
2019-05-11T13:01:38.179Z,20.41
2019-05-11T13:04:08.878Z,20.28
2019-05-11T13:06:38.625Z,20.12
2019-05-11T13:09:09.095Z,20.08
2019-05-11T13:11:38.342Z,20.14
2019-05-11T13:14:08.145Z,20.18
2019-05-11T13:16:38.033Z,20.35
2019-05-11T13:19:08.405Z,20.63
2019-05-11T13:21:38.452Z,20.62
2019-05-11T13:24:08.500Z,20.53
2019-05-11T13:26:38.312Z,20.38
2019-05-11T13:29:08.055Z,20.23
2019-05-11T13:31:38.421Z,20.16
2019-05-11T13:34:08.473Z,20.18
2019-05-11T13:36:38.357Z,20.23
2019-05-11T13:39:08.867Z,20.46
2019-05-11T13:41:39.169Z,20.66
2019-05-11T13:44:08.283Z,20.75
2019-05-11T13:46:38.902Z,20.80
2019-05-11T13:49:08.678Z,20.94
2019-05-11T13:51:38.837Z,20.97
2019-05-11T13:54:10.537Z,20.97
2019-05-11T13:56:39.460Z,21.00
2019-05-11T13:59:12.698Z,21.08
2019-05-11T14:01:49.508Z,21.18
2019-05-11T14:04:18.582Z,21.19
2019-05-11T14:06:48.308Z,21.11
2019-05-11T14:09:18.374Z,21.21
2019-05-11T14:11:47.998Z,21.35
2019-05-11T14:14:18.352Z,21.49
2019-05-11T14:16:53.869Z,21.62
2019-05-11T14:19:23.044Z,21.64
2019-05-11T14:21:52.359Z,21.70
2019-05-11T14:24:21.820Z,21.78
2019-05-11T14:26:52.129Z,21.76
2019-05-11T14:29:24.294Z,21.82
2019-05-11T14:31:53.483Z,21.82
2019-05-11T14:34:24.749Z,21.81
2019-05-11T14:36:58.245Z,21.75
2019-05-11T14:39:28.279Z,21.53
2019-05-11T14:41:58.672Z,21.28
2019-05-11T14:44:29.566Z,21.09
2019-05-11T14:46:59.393Z,20.94
2019-05-11T14:49:28.734Z,20.80
2019-05-11T14:51:57.899Z,20.70
2019-05-11T14:54:28.870Z,20.65
2019-05-11T14:57:00.956Z,20.68
2019-05-11T14:59:30.037Z,20.68
2019-05-11T15:01:59.195Z,20.81
2019-05-11T15:04:28.806Z,20.79
2019-05-11T15:06:58.279Z,20.79
2019-05-11T15:09:28.617Z,20.86
2019-05-11T15:11:58.231Z,20.91
2019-05-11T15:14:28.845Z,20.86
2019-05-11T15:16:58.308Z,20.79
2019-05-11T15:19:27.837Z,20.70
2019-05-11T15:21:58.164Z,20.57
2019-05-11T15:24:28.721Z,20.44
2019-05-11T15:26:58.480Z,20.39
2019-05-11T15:29:28.736Z,20.25
2019-05-11T15:31:58.093Z,20.20
2019-05-11T15:34:28.953Z,20.09
2019-05-11T15:36:58.415Z,20.04
2019-05-11T15:39:28.707Z,20.04
2019-05-11T15:42:09.381Z,19.99
2019-05-11T15:44:28.884Z,19.88
2019-05-11T15:46:58.338Z,19.81
2019-05-11T15:49:28.352Z,19.79
2019-05-11T15:51:57.979Z,19.75
2019-05-11T15:54:28.851Z,19.74
2019-05-11T15:56:59.927Z,19.71
2019-05-11T15:59:32.115Z,19.80
2019-05-11T16:02:01.385Z,20.02
2019-05-11T16:04:30.525Z,20.22
2019-05-11T16:07:00.124Z,20.27
2019-05-11T16:09:48.976Z,20.21
2019-05-11T16:12:18.337Z,20.19
2019-05-11T16:14:48.586Z,20.18
2019-05-11T16:17:18.380Z,20.13
2019-05-11T16:19:49.055Z,20.00
2019-05-11T16:22:21.085Z,19.81
2019-05-11T16:24:49.561Z,19.71
2019-05-11T16:27:18.695Z,19.67
2019-05-11T16:29:48.046Z,19.61
2019-05-11T16:32:17.159Z,19.57
2019-05-11T16:34:46.399Z,19.58
2019-05-11T16:37:18.319Z,19.61
2019-05-11T16:39:49.403Z,19.61
2019-05-11T16:42:17.686Z,19.65
2019-05-11T16:44:48.313Z,19.71
2019-05-11T16:47:18.168Z,19.82
2019-05-11T16:49:47.459Z,19.96
2019-05-11T16:52:18.341Z,20.07
2019-05-11T16:54:47.802Z,20.18
2019-05-11T16:57:17.699Z,20.17
2019-05-11T16:59:48.380Z,19.98
2019-05-11T17:02:18.775Z,19.93
2019-05-11T17:04:48.057Z,19.88
2019-05-11T17:07:17.073Z,19.81
2019-05-11T17:09:48.158Z,19.73
2019-05-11T17:12:18.007Z,19.69
2019-05-11T17:14:59.935Z,19.61
2019-05-11T17:17:29.107Z,19.49
2019-05-11T17:19:58.941Z,19.32
2019-05-11T17:22:28.283Z,19.12
2019-05-11T17:24:58.941Z,19.01
2019-05-11T17:27:28.636Z,18.89
2019-05-11T17:29:59.315Z,18.80
2019-05-11T17:32:29.440Z,18.73
2019-05-11T17:34:58.695Z,18.70
2019-05-11T17:37:28.529Z,18.67
2019-05-11T17:39:58.663Z,18.64
2019-05-11T17:42:27.983Z,18.60
2019-05-11T17:44:58.912Z,18.54
2019-05-11T17:47:28.330Z,18.48
2019-05-11T17:50:03.501Z,18.45
2019-05-11T17:52:28.754Z,18.41
2019-05-11T17:54:58.017Z,18.37
2019-05-11T17:57:27.743Z,18.32
2019-05-11T17:59:57.961Z,18.31
2019-05-11T18:02:28.838Z,18.30
2019-05-11T18:04:58.482Z,18.29
2019-05-11T18:07:30.717Z,18.27
2019-05-11T18:09:58.730Z,18.23
2019-05-11T18:12:28.585Z,18.22
2019-05-11T18:14:58.584Z,18.20
2019-05-11T18:17:28.097Z,18.18
2019-05-11T18:20:06.642Z,18.21
2019-05-11T18:22:28.565Z,18.23
2019-05-11T18:24:58.147Z,18.21
2019-05-11T18:27:27.857Z,18.20
2019-05-11T18:30:03.017Z,18.16
2019-05-11T18:32:32.188Z,18.17
2019-05-11T18:35:01.607Z,18.18
2019-05-11T18:37:30.823Z,18.16
2019-05-11T18:39:59.902Z,18.12
2019-05-11T18:42:29.059Z,18.08
2019-05-11T18:45:00.248Z,18.01
2019-05-11T18:47:29.943Z,17.97
2019-05-11T18:49:59.389Z,17.76
2019-05-11T18:52:28.456Z,17.83
2019-05-11T18:54:57.895Z,17.77
2019-05-11T18:57:27.821Z,17.70
2019-05-11T18:59:58.723Z,17.62
2019-05-11T19:02:28.039Z,17.56
2019-05-11T19:04:58.140Z,17.47
2019-05-11T19:07:28.322Z,17.44
2019-05-11T19:09:57.803Z,17.37
2019-05-11T19:12:27.914Z,17.30
2019-05-11T19:14:58.729Z,17.25
2019-05-11T19:17:29.051Z,17.20
2019-05-11T19:19:58.236Z,17.14
2019-05-11T19:22:28.880Z,17.06
2019-05-11T19:24:58.356Z,16.93
2019-05-11T19:27:28.845Z,16.82
2019-05-11T19:29:58.023Z,16.73
2019-05-11T19:32:28.241Z,16.66
2019-05-11T19:34:58.088Z,16.58
2019-05-11T19:37:27.988Z,16.51
2019-05-11T19:39:58.004Z,16.44
2019-05-11T19:42:28.527Z,16.36
2019-05-11T19:44:57.799Z,16.28
2019-05-11T19:47:28.232Z,16.18
2019-05-11T19:49:58.250Z,16.11
2019-05-11T19:52:28.220Z,16.04
2019-05-11T19:54:57.835Z,15.97
2019-05-11T19:57:28.294Z,15.89
2019-05-11T19:59:58.346Z,15.81
2019-05-11T20:02:28.355Z,15.74
2019-05-11T20:04:58.509Z,15.65
2019-05-11T20:07:27.702Z,15.58
2019-05-11T20:09:56.767Z,15.52
2019-05-11T20:12:25.788Z,15.45
2019-05-11T20:14:54.951Z,15.41
2019-05-11T20:17:24.039Z,15.40
2019-05-11T20:19:53.078Z,15.35
2019-05-11T20:22:22.113Z,15.29
2019-05-11T20:24:51.228Z,15.23
2019-05-11T20:27:20.301Z,15.19
2019-05-11T20:29:49.407Z,15.13
2019-05-11T20:32:18.843Z,15.09
2019-05-11T20:34:48.321Z,15.04
2019-05-11T20:37:18.217Z,14.97
2019-05-11T20:39:48.152Z,14.90
2019-05-11T20:42:18.137Z,14.84
2019-05-11T20:44:47.327Z,14.79
2019-05-11T20:47:17.835Z,14.78
2019-05-11T20:49:48.177Z,14.74
2019-05-11T20:52:17.906Z,14.71
2019-05-11T20:54:47.730Z,14.67
2019-05-11T20:57:17.982Z,14.62
2019-05-11T20:59:47.187Z,14.57
2019-05-11T21:02:18.280Z,14.51
2019-05-11T21:04:49.129Z,14.46
2019-05-11T21:07:19.915Z,14.41
2019-05-11T21:09:48.620Z,14.37
2019-05-11T21:12:18.496Z,14.35
2019-05-11T21:14:48.623Z,14.32
2019-05-11T21:17:18.271Z,14.26
2019-05-11T21:19:47.885Z,14.22
2019-05-11T21:22:17.246Z,14.17
2019-05-11T21:24:49.418Z,14.12
2019-05-11T21:27:19.938Z,14.05
2019-05-11T21:29:49.093Z,13.99
2019-05-11T21:32:18.539Z,13.92
2019-05-11T21:38:17.730Z,13.85
2019-05-11T21:40:48.546Z,13.67
2019-05-11T21:43:17.642Z,13.61
2019-05-11T21:45:46.689Z,13.61
2019-05-11T21:48:15.720Z,13.59
2019-05-11T21:50:44.897Z,13.56
2019-05-11T21:53:13.932Z,13.55
2019-05-11T21:55:42.998Z,13.50
2019-05-11T21:58:12.116Z,13.46
2019-05-11T22:00:41.251Z,13.41
2019-05-11T22:03:10.571Z,13.39
2019-05-11T22:05:39.775Z,13.35
2019-05-11T22:08:08.808Z,13.30
2019-05-11T22:10:38.554Z,13.24
2019-05-11T22:13:07.796Z,13.20
2019-05-11T22:15:38.614Z,13.15
2019-05-11T22:18:08.164Z,13.13
2019-05-11T22:20:40.569Z,13.08
2019-05-11T22:23:08.627Z,13.01
2019-05-11T22:25:38.324Z,12.98
2019-05-11T22:28:08.405Z,12.94
2019-05-11T22:30:39.311Z,12.89
2019-05-11T22:33:08.947Z,12.86
2019-05-11T22:35:38.405Z,12.82
2019-05-11T22:38:08.399Z,12.79
2019-05-11T22:40:38.437Z,12.73
2019-05-11T22:43:09.313Z,12.69
2019-05-11T22:45:38.543Z,12.67
2019-05-11T22:48:08.022Z,12.61
2019-05-11T22:50:38.143Z,12.55
2019-05-11T22:53:08.649Z,12.55
2019-05-11T22:55:38.780Z,12.50
2019-05-11T22:58:08.543Z,12.50
2019-05-11T23:00:41.965Z,12.45
2019-05-11T23:03:11.265Z,12.42
2019-05-11T23:05:40.842Z,12.36
2019-05-11T23:08:09.914Z,12.32
2019-05-11T23:10:38.975Z,12.32
2019-05-11T23:13:11.080Z,12.29
2019-05-11T23:15:40.368Z,12.23
2019-05-11T23:18:09.810Z,12.21
2019-05-11T23:20:38.985Z,12.19
2019-05-11T23:23:08.795Z,12.15
2019-05-11T23:25:38.137Z,12.14
2019-05-11T23:28:07.978Z,12.10
2019-05-11T23:30:38.913Z,12.06
2019-05-11T23:33:08.044Z,12.03
2019-05-11T23:35:38.252Z,11.99
2019-05-11T23:38:07.538Z,11.99
2019-05-11T23:40:37.846Z,11.97
2019-05-11T23:43:08.559Z,11.92
2019-05-11T23:45:38.276Z,11.91
2019-05-11T23:48:07.504Z,11.84
2019-05-11T23:50:38.623Z,11.81
2019-05-11T23:53:10.069Z,11.79
2019-05-11T23:55:38.175Z,11.75
2019-05-11T23:58:08.221Z,11.72
